Birmingham, AL (35291)

4:34 PM CDT on June 30, 2015 (GMT -0500)
UAB HHB | | Change Station
CLOSE
Current Station
Personal Weather Station
Location: Birmingham, AL
Elevation: 617 ft
Nearby Weather Stations

Elev 617 ft 33.50 °N, 86.81 °W | Updated 54 seconds ago

Overcast
Overcast
80.9 °F
Feels Like 83 °F
N
6.0
Wind Variable Wind from SSW
Gusts 15.0 mph

Today
High -- | Low -- °F
--% Chance of Precip.
Yesterday
High -- | Low -- °F
Precip. -- in
5:40 AM 8:01 PM
Waxing Gibbous, 98% visible
Pressure 29.97 in
Visibility 10.0 miles
Clouds Overcast 25000 ft
Heat Index 83 °F
Dew Point 67 °F
Humidity 62%
Rainfall in
Snow Depth Not available.
UV 2 out of 12
Pollen 3.30 out of 12
Air Quality Not available.
Flu Activity Sporadic
METAR KBHM 302053Z 25011G17KT 10SM OVC250 28/18 A3000 RMK AO2 SLP148 T02780183 56013

More Conditions Fewer Conditions

Pressure 29.97 in
Visibility 10.0 miles
Clouds Overcast 25000 ft
Heat Index 83 °F
Dew Point 67 °F
Humidity 62%
Rainfall in
Snow Depth Not available.
UV 2 out of 12
Pollen 3.30 out of 12
Air Quality Not available.
Flu Activity Sporadic
METAR KBHM 302053Z 25011G17KT 10SM OVC250 28/18 A3000 RMK AO2 SLP148 T02780183 56013

More Conditions Fewer Conditions

10-Day Weather Forecast

×

Almanac

Astronomy

Jun. 30, 2015 Rise Set
Actual Time
Civil Twilight
Nautical Twilight
Astronomical Twilight
Moon
Length of Visible Light
Length of Day
Tomorrow will be .
, % of the Moon is Illuminated

Today's Extremes

State Highs State Lows

Community

WunderPhotos

Upload Photos

1,834,095 photos uploaded!

WunderBlogs® & News

Nearby

Air Quality

  Air Quality AQ Index Pollutant
Not available.

Snow Depth

Station Depth Elevation

Earthquake Activity

City Distance Mag. Time & Date
Minimum magnitude displayed is 2.5.

Coastal Water Temperatures

Place Temperature

Stations

Nearby Weather Stations

Station Location Temp. Windchill Dew Point Humidity Wind Precip. Elev Updated Type